sensor_id;sensor_type;location;lat;lon;timestamp;temperature;humidity
4054;DHT22;2042;47.956;9.222;2023-02-15T00:00:21;-1.80;18.80
4054;DHT22;2042;47.956;9.222;2023-02-15T00:02:46;-1.80;18.70
4054;DHT22;2042;47.956;9.222;2023-02-15T00:05:12;-1.90;18.50
4054;DHT22;2042;47.956;9.222;2023-02-15T00:07:38;-1.90;18.60
4054;DHT22;2042;47.956;9.222;2023-02-15T00:10:04;-1.90;18.60
4054;DHT22;2042;47.956;9.222;2023-02-15T00:12:30;-1.90;18.50
4054;DHT22;2042;47.956;9.222;2023-02-15T00:14:55;-1.90;18.40
4054;DHT22;2042;47.956;9.222;2023-02-15T00:17:21;-1.90;18.20
4054;DHT22;2042;47.956;9.222;2023-02-15T00:19:47;-1.90;18.10
4054;DHT22;2042;47.956;9.222;2023-02-15T00:22:12;-2.00;18.10
4054;DHT22;2042;47.956;9.222;2023-02-15T00:24:38;-2.00;18.00
4054;DHT22;2042;47.956;9.222;2023-02-15T00:27:04;-2.00;17.90
4054;DHT22;2042;47.956;9.222;2023-02-15T00:29:29;-2.00;17.90
4054;DHT22;2042;47.956;9.222;2023-02-15T00:31:55;-2.10;17.70
4054;DHT22;2042;47.956;9.222;2023-02-15T00:34:24;-2.10;17.80
4054;DHT22;2042;47.956;9.222;2023-02-15T00:36:50;-2.10;18.00
4054;DHT22;2042;47.956;9.222;2023-02-15T00:39:16;-2.00;18.20
4054;DHT22;2042;47.956;9.222;2023-02-15T00:41:42;-2.00;18.20
4054;DHT22;2042;47.956;9.222;2023-02-15T00:44:09;-2.00;18.30
4054;DHT22;2042;47.956;9.222;2023-02-15T00:46:35;-1.90;18.40
4054;DHT22;2042;47.956;9.222;2023-02-15T00:49:01;-1.90;18.30
4054;DHT22;2042;47.956;9.222;2023-02-15T00:51:27;-1.90;18.30
4054;DHT22;2042;47.956;9.222;2023-02-15T00:53:53;-1.90;18.30
4054;DHT22;2042;47.956;9.222;2023-02-15T00:56:19;-1.90;18.00
4054;DHT22;2042;47.956;9.222;2023-02-15T00:58:45;-2.00;17.90
4054;DHT22;2042;47.956;9.222;2023-02-15T01:01:13;-2.00;17.80
4054;DHT22;2042;47.956;9.222;2023-02-15T01:03:39;-2.00;17.60
4054;DHT22;2042;47.956;9.222;2023-02-15T01:06:07;-2.00;17.70
4054;DHT22;2042;47.956;9.222;2023-02-15T01:08:33;-2.00;17.70
4054;DHT22;2042;47.956;9.222;2023-02-15T01:11:07;-2.00;17.70
4054;DHT22;2042;47.956;9.222;2023-02-15T01:13:34;-2.00;17.60
4054;DHT22;2042;47.956;9.222;2023-02-15T01:16:00;-2.10;17.40
4054;DHT22;2042;47.956;9.222;2023-02-15T01:18:26;-2.10;17.30
4054;DHT22;2042;47.956;9.222;2023-02-15T01:20:52;-2.10;17.20
4054;DHT22;2042;47.956;9.222;2023-02-15T01:23:17;-2.10;17.10
4054;DHT22;2042;47.956;9.222;2023-02-15T01:25:43;-2.10;17.10
4054;DHT22;2042;47.956;9.222;2023-02-15T01:28:09;-2.10;17.10
4054;DHT22;2042;47.956;9.222;2023-02-15T01:30:35;-2.20;17.10
4054;DHT22;2042;47.956;9.222;2023-02-15T01:33:00;-2.10;17.10
4054;DHT22;2042;47.956;9.222;2023-02-15T01:35:27;-2.10;17.10
4054;DHT22;2042;47.956;9.222;2023-02-15T01:37:54;-2.10;17.20
4054;DHT22;2042;47.956;9.222;2023-02-15T01:40:20;-2.10;17.20
4054;DHT22;2042;47.956;9.222;2023-02-15T01:42:45;-2.10;17.10
4054;DHT22;2042;47.956;9.222;2023-02-15T01:45:25;-2.10;17.10
4054;DHT22;2042;47.956;9.222;2023-02-15T01:47:58;-2.10;17.10
4054;DHT22;2042;47.956;9.222;2023-02-15T01:55:58;-2.10;16.90
4054;DHT22;2042;47.956;9.222;2023-02-15T01:58:27;-2.10;16.80
4054;DHT22;2042;47.956;9.222;2023-02-15T02:00:56;-2.20;16.30
4054;DHT22;2042;47.956;9.222;2023-02-15T02:03:38;-2.20;16.40
4054;DHT22;2042;47.956;9.222;2023-02-15T02:06:06;-2.10;16.90
4054;DHT22;2042;47.956;9.222;2023-02-15T02:08:33;-2.10;16.90
4054;DHT22;2042;47.956;9.222;2023-02-15T02:10:58;-2.10;16.80
4054;DHT22;2042;47.956;9.222;2023-02-15T02:13:24;-2.10;16.70
4054;DHT22;2042;47.956;9.222;2023-02-15T02:16:00;-2.20;16.10
4054;DHT22;2042;47.956;9.222;2023-02-15T02:21:42;-2.30;16.00
4054;DHT22;2042;47.956;9.222;2023-02-15T02:38:21;-2.20;15.90
4054;DHT22;2042;47.956;9.222;2023-02-15T02:43:50;-2.30;15.20
4054;DHT22;2042;47.956;9.222;2023-02-15T02:46:17;-2.40;15.40
4054;DHT22;2042;47.956;9.222;2023-02-15T02:48:46;-2.40;15.50
4054;DHT22;2042;47.956;9.222;2023-02-15T02:51:12;-2.40;15.30
4054;DHT22;2042;47.956;9.222;2023-02-15T02:53:39;-2.40;15.50
4054;DHT22;2042;47.956;9.222;2023-02-15T02:56:18;-2.40;15.70
4054;DHT22;2042;47.956;9.222;2023-02-15T02:58:49;-2.40;15.80
4054;DHT22;2042;47.956;9.222;2023-02-15T03:01:41;-2.40;15.50
4054;DHT22;2042;47.956;9.222;2023-02-15T03:04:39;-2.40;15.00
4054;DHT22;2042;47.956;9.222;2023-02-15T03:07:14;-2.50;13.90
4054;DHT22;2042;47.956;9.222;2023-02-15T03:09:46;-2.70;13.10
4054;DHT22;2042;47.956;9.222;2023-02-15T03:14:44;-2.90;12.90
4054;DHT22;2042;47.956;9.222;2023-02-15T03:17:13;-2.90;12.90
4054;DHT22;2042;47.956;9.222;2023-02-15T03:19:40;-3.00;12.80
4054;DHT22;2042;47.956;9.222;2023-02-15T03:22:14;-3.00;12.90
4054;DHT22;2042;47.956;9.222;2023-02-15T03:24:47;-3.00;13.20
4054;DHT22;2042;47.956;9.222;2023-02-15T03:27:17;-3.00;13.70
4054;DHT22;2042;47.956;9.222;2023-02-15T03:29:47;-3.00;13.90
4054;DHT22;2042;47.956;9.222;2023-02-15T03:32:14;-2.90;14.30
4054;DHT22;2042;47.956;9.222;2023-02-15T03:34:41;-2.90;14.10
4054;DHT22;2042;47.956;9.222;2023-02-15T03:37:36;-2.90;14.20
4054;DHT22;2042;47.956;9.222;2023-02-15T03:40:23;-2.90;14.30
4054;DHT22;2042;47.956;9.222;2023-02-15T03:43:21;-2.90;14.00
4054;DHT22;2042;47.956;9.222;2023-02-15T03:45:52;-3.00;13.50
4054;DHT22;2042;47.956;9.222;2023-02-15T03:48:42;-3.10;13.30
4054;DHT22;2042;47.956;9.222;2023-02-15T03:51:12;-3.10;13.30
4054;DHT22;2042;47.956;9.222;2023-02-15T03:54:06;-3.10;13.40
4054;DHT22;2042;47.956;9.222;2023-02-15T03:56:36;-3.20;12.70
4054;DHT22;2042;47.956;9.222;2023-02-15T03:59:02;-3.30;12.50
4054;DHT22;2042;47.956;9.222;2023-02-15T04:02:17;-3.30;12.50
4054;DHT22;2042;47.956;9.222;2023-02-15T04:04:47;-3.30;12.60
4054;DHT22;2042;47.956;9.222;2023-02-15T04:07:13;-3.30;12.60
4054;DHT22;2042;47.956;9.222;2023-02-15T04:09:38;-3.30;12.60
4054;DHT22;2042;47.956;9.222;2023-02-15T04:12:23;-3.30;12.60
4054;DHT22;2042;47.956;9.222;2023-02-15T04:14:49;-3.30;12.60
4054;DHT22;2042;47.956;9.222;2023-02-15T04:17:33;-3.30;12.60
4054;DHT22;2042;47.956;9.222;2023-02-15T04:19:58;-3.30;12.60
4054;DHT22;2042;47.956;9.222;2023-02-15T04:22:42;-3.30;12.60
4054;DHT22;2042;47.956;9.222;2023-02-15T04:25:26;-3.40;12.00
4054;DHT22;2042;47.956;9.222;2023-02-15T04:27:53;-3.40;11.40
4054;DHT22;2042;47.956;9.222;2023-02-15T04:30:22;-3.50;10.90
4054;DHT22;2042;47.956;9.222;2023-02-15T04:32:48;-3.50;10.80
4054;DHT22;2042;47.956;9.222;2023-02-15T04:35:14;-3.60;10.10
4054;DHT22;2042;47.956;9.222;2023-02-15T04:37:41;-3.70;10.00
4054;DHT22;2042;47.956;9.222;2023-02-15T04:40:08;-3.70;10.10
4054;DHT22;2042;47.956;9.222;2023-02-15T04:42:34;-3.70;10.20
4054;DHT22;2042;47.956;9.222;2023-02-15T04:45:00;-3.80;10.20
4054;DHT22;2042;47.956;9.222;2023-02-15T04:47:26;-3.80;10.20
4054;DHT22;2042;47.956;9.222;2023-02-15T04:49:51;-3.80;10.30
4054;DHT22;2042;47.956;9.222;2023-02-15T04:52:17;-3.80;10.30
4054;DHT22;2042;47.956;9.222;2023-02-15T04:54:43;-3.80;10.10
4054;DHT22;2042;47.956;9.222;2023-02-15T04:57:09;-3.90;10.10
4054;DHT22;2042;47.956;9.222;2023-02-15T04:59:35;-3.90;10.00
4054;DHT22;2042;47.956;9.222;2023-02-15T05:02:00;-3.90;10.00
4054;DHT22;2042;47.956;9.222;2023-02-15T05:04:26;-3.90;10.10
4054;DHT22;2042;47.956;9.222;2023-02-15T05:06:52;-3.90;9.40
4054;DHT22;2042;47.956;9.222;2023-02-15T05:09:17;-4.10;8.50
4054;DHT22;2042;47.956;9.222;2023-02-15T05:11:43;-4.10;8.40
4054;DHT22;2042;47.956;9.222;2023-02-15T05:14:09;-4.20;8.20
4054;DHT22;2042;47.956;9.222;2023-02-15T05:16:34;-4.30;7.90
4054;DHT22;2042;47.956;9.222;2023-02-15T05:19:00;-4.30;7.90
4054;DHT22;2042;47.956;9.222;2023-02-15T05:21:27;-4.40;8.20
4054;DHT22;2042;47.956;9.222;2023-02-15T05:23:52;-4.40;8.20
4054;DHT22;2042;47.956;9.222;2023-02-15T05:26:21;-4.40;8.30
4054;DHT22;2042;47.956;9.222;2023-02-15T05:29:06;-4.40;8.40
4054;DHT22;2042;47.956;9.222;2023-02-15T05:31:32;-4.40;8.60
4054;DHT22;2042;47.956;9.222;2023-02-15T05:33:58;-4.40;8.50
4054;DHT22;2042;47.956;9.222;2023-02-15T05:36:24;-4.40;8.40
4054;DHT22;2042;47.956;9.222;2023-02-15T05:38:50;-4.40;8.50
4054;DHT22;2042;47.956;9.222;2023-02-15T05:41:16;-4.50;8.40
4054;DHT22;2042;47.956;9.222;2023-02-15T05:43:42;-4.50;8.60
4054;DHT22;2042;47.956;9.222;2023-02-15T05:46:08;-4.40;8.90
4054;DHT22;2042;47.956;9.222;2023-02-15T05:48:34;-4.40;9.20
4054;DHT22;2042;47.956;9.222;2023-02-15T05:51:11;-4.40;9.20
4054;DHT22;2042;47.956;9.222;2023-02-15T05:53:39;-4.40;9.20
4054;DHT22;2042;47.956;9.222;2023-02-15T05:56:06;-4.30;9.20
4054;DHT22;2042;47.956;9.222;2023-02-15T05:58:35;-4.30;9.00
4054;DHT22;2042;47.956;9.222;2023-02-15T06:01:27;-4.40;8.80
4054;DHT22;2042;47.956;9.222;2023-02-15T06:03:53;-4.40;8.70
4054;DHT22;2042;47.956;9.222;2023-02-15T06:06:21;-4.40;8.30
4054;DHT22;2042;47.956;9.222;2023-02-15T06:08:46;-4.50;7.60
4054;DHT22;2042;47.956;9.222;2023-02-15T06:11:12;-4.60;6.80
4054;DHT22;2042;47.956;9.222;2023-02-15T06:13:38;-4.70;6.20
4054;DHT22;2042;47.956;9.222;2023-02-15T06:16:03;-4.80;5.40
4054;DHT22;2042;47.956;9.222;2023-02-15T06:18:29;-4.90;4.20
4054;DHT22;2042;47.956;9.222;2023-02-15T06:20:55;-5.00;3.30
4054;DHT22;2042;47.956;9.222;2023-02-15T06:23:21;-5.20;2.00
4054;DHT22;2042;47.956;9.222;2023-02-15T06:25:46;-5.20;1.60
4054;DHT22;2042;47.956;9.222;2023-02-15T06:28:12;-5.20;1.50
4054;DHT22;2042;47.956;9.222;2023-02-15T06:30:38;-5.20;1.20
4054;DHT22;2042;47.956;9.222;2023-02-15T06:33:04;-5.20;1.00
4054;DHT22;2042;47.956;9.222;2023-02-15T06:35:30;-5.30;1.00
4054;DHT22;2042;47.956;9.222;2023-02-15T06:37:55;-5.30;1.00
4054;DHT22;2042;47.956;9.222;2023-02-15T06:40:21;-5.30;1.00
4054;DHT22;2042;47.956;9.222;2023-02-15T06:42:47;-5.30;1.00
4054;DHT22;2042;47.956;9.222;2023-02-15T06:45:12;-5.30;1.00
4054;DHT22;2042;47.956;9.222;2023-02-15T06:47:38;-5.30;1.00
4054;DHT22;2042;47.956;9.222;2023-02-15T06:50:05;-5.30;1.00
4054;DHT22;2042;47.956;9.222;2023-02-15T06:52:31;-5.30;1.00
4054;DHT22;2042;47.956;9.222;2023-02-15T06:54:57;-5.20;1.00
4054;DHT22;2042;47.956;9.222;2023-02-15T06:57:23;-5.10;1.00
4054;DHT22;2042;47.956;9.222;2023-02-15T06:59:48;-5.00;1.40
4054;DHT22;2042;47.956;9.222;2023-02-15T07:02:14;-4.80;3.20
4054;DHT22;2042;47.956;9.222;2023-02-15T07:04:40;-4.60;4.10
4054;DHT22;2042;47.956;9.222;2023-02-15T07:07:10;-4.50;4.40
4054;DHT22;2042;47.956;9.222;2023-02-15T07:09:37;-4.30;4.90
4054;DHT22;2042;47.956;9.222;2023-02-15T07:12:03;-4.10;6.10
4054;DHT22;2042;47.956;9.222;2023-02-15T07:14:47;-3.90;6.60
4054;DHT22;2042;47.956;9.222;2023-02-15T07:17:13;-3.60;7.30
4054;DHT22;2042;47.956;9.222;2023-02-15T07:19:39;-3.40;6.70
4054;DHT22;2042;47.956;9.222;2023-02-15T07:22:04;-3.20;6.80
4054;DHT22;2042;47.956;9.222;2023-02-15T07:24:30;-3.10;5.40
4054;DHT22;2042;47.956;9.222;2023-02-15T07:26:56;-2.90;5.30
4054;DHT22;2042;47.956;9.222;2023-02-15T07:29:23;-2.70;5.50
4054;DHT22;2042;47.956;9.222;2023-02-15T07:31:49;-2.50;3.90
4054;DHT22;2042;47.956;9.222;2023-02-15T07:34:14;-2.30;3.40
4054;DHT22;2042;47.956;9.222;2023-02-15T07:36:41;-2.20;2.30
4054;DHT22;2042;47.956;9.222;2023-02-15T07:39:07;-2.00;1.00
4054;DHT22;2042;47.956;9.222;2023-02-15T07:41:32;-1.80;1.00
4054;DHT22;2042;47.956;9.222;2023-02-15T07:43:58;-1.60;1.00
4054;DHT22;2042;47.956;9.222;2023-02-15T07:46:23;-1.40;1.00
4054;DHT22;2042;47.956;9.222;2023-02-15T07:48:49;-1.10;1.00
4054;DHT22;2042;47.956;9.222;2023-02-15T07:51:16;-0.80;1.00
4054;DHT22;2042;47.956;9.222;2023-02-15T07:53:44;-0.60;1.00
4054;DHT22;2042;47.956;9.222;2023-02-15T07:56:12;-0.50;1.00
4054;DHT22;2042;47.956;9.222;2023-02-15T07:58:38;-0.20;1.00
4054;DHT22;2042;47.956;9.222;2023-02-15T08:01:35;0.00;1.00
4054;DHT22;2042;47.956;9.222;2023-02-15T08:04:04;0.30;1.00
4054;DHT22;2042;47.956;9.222;2023-02-15T08:06:34;0.50;1.00
4054;DHT22;2042;47.956;9.222;2023-02-15T08:09:05;0.70;1.00
4054;DHT22;2042;47.956;9.222;2023-02-15T08:11:35;0.90;1.00
4054;DHT22;2042;47.956;9.222;2023-02-15T08:14:20;1.30;1.00
4054;DHT22;2042;47.956;9.222;2023-02-15T08:16:55;1.60;1.00
4054;DHT22;2042;47.956;9.222;2023-02-15T08:19:26;2.00;1.00
4054;DHT22;2042;47.956;9.222;2023-02-15T08:21:56;2.50;1.00
4054;DHT22;2042;47.956;9.222;2023-02-15T08:24:26;3.00;1.00
4054;DHT22;2042;47.956;9.222;2023-02-15T08:26:53;4.20;1.00
4054;DHT22;2042;47.956;9.222;2023-02-15T08:29:23;4.80;1.00
4054;DHT22;2042;47.956;9.222;2023-02-15T08:31:56;6.80;1.00
4054;DHT22;2042;47.956;9.222;2023-02-15T08:34:42;7.30;1.00
4054;DHT22;2042;47.956;9.222;2023-02-15T08:37:08;8.60;1.00
4054;DHT22;2042;47.956;9.222;2023-02-15T08:39:35;9.70;1.00
4054;DHT22;2042;47.956;9.222;2023-02-15T08:42:02;10.50;1.00
4054;DHT22;2042;47.956;9.222;2023-02-15T08:44:29;11.00;1.00
4054;DHT22;2042;47.956;9.222;2023-02-15T08:53:47;11.50;1.00
4054;DHT22;2042;47.956;9.222;2023-02-15T08:56:22;11.50;1.00
4054;DHT22;2042;47.956;9.222;2023-02-15T08:59:18;11.40;1.00
4054;DHT22;2042;47.956;9.222;2023-02-15T09:04:52;12.40;1.00
4054;DHT22;2042;47.956;9.222;2023-02-15T09:07:18;12.40;1.00
4054;DHT22;2042;47.956;9.222;2023-02-15T09:14:41;14.00;1.00
4054;DHT22;2042;47.956;9.222;2023-02-15T09:17:09;14.10;1.00
4054;DHT22;2042;47.956;9.222;2023-02-15T09:19:36;14.90;1.00
4054;DHT22;2042;47.956;9.222;2023-02-15T09:29:11;16.50;1.00
4054;DHT22;2042;47.956;9.222;2023-02-15T09:31:40;16.80;1.00
4054;DHT22;2042;47.956;9.222;2023-02-15T09:34:13;17.00;1.00
4054;DHT22;2042;47.956;9.222;2023-02-15T09:40:19;15.90;1.00
4054;DHT22;2042;47.956;9.222;2023-02-15T09:48:55;17.10;1.00
4054;DHT22;2042;47.956;9.222;2023-02-15T09:51:41;17.80;1.00
4054;DHT22;2042;47.956;9.222;2023-02-15T09:54:14;17.90;1.00
4054;DHT22;2042;47.956;9.222;2023-02-15T09:56:53;17.60;1.00
4054;DHT22;2042;47.956;9.222;2023-02-15T10:00:18;17.10;1.00
4054;DHT22;2042;47.956;9.222;2023-02-15T10:05:37;16.50;1.00
4054;DHT22;2042;47.956;9.222;2023-02-15T10:24:18;18.30;1.00
4054;DHT22;2042;47.956;9.222;2023-02-15T10:26:48;18.50;1.00
4054;DHT22;2042;47.956;9.222;2023-02-15T10:32:04;19.30;1.00
4054;DHT22;2042;47.956;9.222;2023-02-15T10:34:47;18.60;1.00
4054;DHT22;2042;47.956;9.222;2023-02-15T10:37:54;17.80;1.00
4054;DHT22;2042;47.956;9.222;2023-02-15T10:51:40;18.10;1.00
4054;DHT22;2042;47.956;9.222;2023-02-15T10:54:27;18.20;1.00
4054;DHT22;2042;47.956;9.222;2023-02-15T10:57:20;18.20;1.00
4054;DHT22;2042;47.956;9.222;2023-02-15T11:07:37;19.40;1.00
4054;DHT22;2042;47.956;9.222;2023-02-15T11:12:45;20.20;1.00
4054;DHT22;2042;47.956;9.222;2023-02-15T11:17:56;20.00;1.00
4054;DHT22;2042;47.956;9.222;2023-02-15T11:20:35;19.50;1.00
4054;DHT22;2042;47.956;9.222;2023-02-15T11:23:13;19.30;1.00
4054;DHT22;2042;47.956;9.222;2023-02-15T11:25:45;19.50;1.00
4054;DHT22;2042;47.956;9.222;2023-02-15T11:28:37;20.00;1.00
4054;DHT22;2042;47.956;9.222;2023-02-15T11:31:20;20.00;1.00
4054;DHT22;2042;47.956;9.222;2023-02-15T11:33:55;20.20;1.00
4054;DHT22;2042;47.956;9.222;2023-02-15T11:36:25;20.00;1.00
4054;DHT22;2042;47.956;9.222;2023-02-15T11:39:00;19.60;1.00
4054;DHT22;2042;47.956;9.222;2023-02-15T11:41:31;19.40;1.00
4054;DHT22;2042;47.956;9.222;2023-02-15T11:44:14;19.30;1.00
4054;DHT22;2042;47.956;9.222;2023-02-15T11:46:42;19.40;1.00
4054;DHT22;2042;47.956;9.222;2023-02-15T11:49:27;19.60;1.00
4054;DHT22;2042;47.956;9.222;2023-02-15T11:51:53;20.00;1.00
4054;DHT22;2042;47.956;9.222;2023-02-15T11:54:29;20.30;1.00
4054;DHT22;2042;47.956;9.222;2023-02-15T11:57:19;20.80;1.00
4054;DHT22;2042;47.956;9.222;2023-02-15T12:00:06;20.10;1.00
4054;DHT22;2042;47.956;9.222;2023-02-15T12:02:37;19.70;1.00
4054;DHT22;2042;47.956;9.222;2023-02-15T12:05:12;19.60;1.00
4054;DHT22;2042;47.956;9.222;2023-02-15T12:07:51;19.50;1.00
4054;DHT22;2042;47.956;9.222;2023-02-15T12:10:34;19.20;1.00
4054;DHT22;2042;47.956;9.222;2023-02-15T12:13:13;19.00;1.00
4054;DHT22;2042;47.956;9.222;2023-02-15T12:15:45;18.90;1.00
4054;DHT22;2042;47.956;9.222;2023-02-15T13:23:31;17.40;1.00
4054;DHT22;2042;47.956;9.222;2023-02-15T13:25:59;17.30;1.00
4054;DHT22;2042;47.956;9.222;2023-02-15T13:28:39;18.10;1.00
4054;DHT22;2042;47.956;9.222;2023-02-15T13:31:17;18.90;1.00
4054;DHT22;2042;47.956;9.222;2023-02-15T13:34:17;19.10;1.00
4054;DHT22;2042;47.956;9.222;2023-02-15T13:36:59;18.40;1.00
4054;DHT22;2042;47.956;9.222;2023-02-15T13:40:42;16.90;1.00
4054;DHT22;2042;47.956;9.222;2023-02-15T13:51:22;11.60;1.00
4054;DHT22;2042;47.956;9.222;2023-02-15T13:54:16;10.90;1.00
4054;DHT22;2042;47.956;9.222;2023-02-15T13:57:27;10.50;1.00
4054;DHT22;2042;47.956;9.222;2023-02-15T14:08:58;9.80;1.00
4054;DHT22;2042;47.956;9.222;2023-02-15T14:14:34;9.70;1.00
4054;DHT22;2042;47.956;9.222;2023-02-15T14:19:43;9.60;1.00
4054;DHT22;2042;47.956;9.222;2023-02-15T14:30:39;9.30;1.00
4054;DHT22;2042;47.956;9.222;2023-02-15T14:35:51;9.20;1.00
4054;DHT22;2042;47.956;9.222;2023-02-15T14:38:51;9.20;1.00
4054;DHT22;2042;47.956;9.222;2023-02-15T14:41:21;9.20;1.00
4054;DHT22;2042;47.956;9.222;2023-02-15T14:46:48;9.10;1.00
4054;DHT22;2042;47.956;9.222;2023-02-15T14:49:21;9.00;1.00
4054;DHT22;2042;47.956;9.222;2023-02-15T14:56:44;8.90;1.00
4054;DHT22;2042;47.956;9.222;2023-02-15T14:59:22;8.90;1.00
4054;DHT22;2042;47.956;9.222;2023-02-15T15:02:17;8.90;1.00
4054;DHT22;2042;47.956;9.222;2023-02-15T15:12:56;8.40;1.00
4054;DHT22;2042;47.956;9.222;2023-02-15T15:28:09;8.00;1.00
4054;DHT22;2042;47.956;9.222;2023-02-15T15:34:02;8.00;1.00
4054;DHT22;2042;47.956;9.222;2023-02-15T15:39:25;7.80;1.00
4054;DHT22;2042;47.956;9.222;2023-02-15T15:42:11;7.70;1.00
4054;DHT22;2042;47.956;9.222;2023-02-15T15:50:15;7.40;1.00
4054;DHT22;2042;47.956;9.222;2023-02-15T15:52:49;7.30;1.00
4054;DHT22;2042;47.956;9.222;2023-02-15T15:55:19;7.20;1.00
4054;DHT22;2042;47.956;9.222;2023-02-15T15:57:48;7.10;1.00
4054;DHT22;2042;47.956;9.222;2023-02-15T16:00:47;6.80;1.00
4054;DHT22;2042;47.956;9.222;2023-02-15T16:03:16;6.60;1.00
4054;DHT22;2042;47.956;9.222;2023-02-15T16:05:45;6.40;1.00
4054;DHT22;2042;47.956;9.222;2023-02-15T17:24:03;1.00;1.00
4054;DHT22;2042;47.956;9.222;2023-02-15T17:26:36;0.70;1.00
4054;DHT22;2042;47.956;9.222;2023-02-15T17:30:05;0.50;1.00
4054;DHT22;2042;47.956;9.222;2023-02-15T17:32:22;0.40;1.00
4054;DHT22;2042;47.956;9.222;2023-02-15T17:35:08;0.30;1.00
4054;DHT22;2042;47.956;9.222;2023-02-15T19:04:04;-2.20;23.60
4054;DHT22;2042;47.956;9.222;2023-02-15T19:06:29;-2.30;25.60
4054;DHT22;2042;47.956;9.222;2023-02-15T19:08:55;-2.20;27.40
4054;DHT22;2042;47.956;9.222;2023-02-15T19:11:23;-2.20;28.60
4054;DHT22;2042;47.956;9.222;2023-02-15T19:13:50;-2.20;29.40
4054;DHT22;2042;47.956;9.222;2023-02-15T20:08:04;-2.70;1.00
4054;DHT22;2042;47.956;9.222;2023-02-15T20:10:33;-2.80;1.00
4054;DHT22;2042;47.956;9.222;2023-02-15T20:12:59;-2.90;1.00
4054;DHT22;2042;47.956;9.222;2023-02-15T20:15:32;-2.90;1.00
4054;DHT22;2042;47.956;9.222;2023-02-15T20:17:59;-2.80;2.00
4054;DHT22;2042;47.956;9.222;2023-02-15T20:23:00;-2.60;3.90
4054;DHT22;2042;47.956;9.222;2023-02-15T20:25:28;-2.60;4.00
4054;DHT22;2042;47.956;9.222;2023-02-15T20:27:55;-2.70;3.90
4054;DHT22;2042;47.956;9.222;2023-02-15T20:30:25;-2.70;4.00
4054;DHT22;2042;47.956;9.222;2023-02-15T20:32:51;-2.70;3.80
4054;DHT22;2042;47.956;9.222;2023-02-15T20:35:22;-2.80;3.60
4054;DHT22;2042;47.956;9.222;2023-02-15T20:37:50;-2.90;3.70
4054;DHT22;2042;47.956;9.222;2023-02-15T20:40:19;-2.90;4.20
4054;DHT22;2042;47.956;9.222;2023-02-15T20:42:46;-2.90;4.50
4054;DHT22;2042;47.956;9.222;2023-02-15T20:45:24;-2.90;4.60
4054;DHT22;2042;47.956;9.222;2023-02-15T20:47:50;-2.90;5.10
4054;DHT22;2042;47.956;9.222;2023-02-15T20:50:24;-2.90;5.00
4054;DHT22;2042;47.956;9.222;2023-02-15T20:52:52;-2.90;5.40
4054;DHT22;2042;47.956;9.222;2023-02-15T20:55:20;-2.90;6.20
4054;DHT22;2042;47.956;9.222;2023-02-15T20:57:46;-2.90;6.20
4054;DHT22;2042;47.956;9.222;2023-02-15T21:00:23;-2.90;5.60
4054;DHT22;2042;47.956;9.222;2023-02-15T21:02:57;-3.00;5.30
4054;DHT22;2042;47.956;9.222;2023-02-15T21:05:28;-3.10;5.90
4054;DHT22;2042;47.956;9.222;2023-02-15T21:07:55;-3.00;6.40
4054;DHT22;2042;47.956;9.222;2023-02-15T21:10:23;-3.10;6.10
4054;DHT22;2042;47.956;9.222;2023-02-15T21:12:51;-3.10;6.00
4054;DHT22;2042;47.956;9.222;2023-02-15T21:17:50;-3.10;7.30
4054;DHT22;2042;47.956;9.222;2023-02-15T21:20:16;-3.00;7.60
4054;DHT22;2042;47.956;9.222;2023-02-15T21:22:42;-3.00;7.80
4054;DHT22;2042;47.956;9.222;2023-02-15T21:25:14;-3.00;7.80
4054;DHT22;2042;47.956;9.222;2023-02-15T21:27:41;-3.10;6.80
4054;DHT22;2042;47.956;9.222;2023-02-15T21:30:15;-3.20;6.40
4054;DHT22;2042;47.956;9.222;2023-02-15T21:32:41;-3.20;6.40
4054;DHT22;2042;47.956;9.222;2023-02-15T21:35:11;-3.30;7.20
4054;DHT22;2042;47.956;9.222;2023-02-15T21:37:38;-3.30;6.90
4054;DHT22;2042;47.956;9.222;2023-02-15T21:40:16;-3.30;7.40
4054;DHT22;2042;47.956;9.222;2023-02-15T21:42:42;-3.30;7.10
4054;DHT22;2042;47.956;9.222;2023-02-15T21:45:27;-3.40;6.50
4054;DHT22;2042;47.956;9.222;2023-02-15T21:48:11;-3.50;6.30
4054;DHT22;2042;47.956;9.222;2023-02-15T21:50:37;-3.50;6.50
4054;DHT22;2042;47.956;9.222;2023-02-15T21:53:29;-3.50;6.70
4054;DHT22;2042;47.956;9.222;2023-02-15T21:55:58;-3.50;7.00
4054;DHT22;2042;47.956;9.222;2023-02-15T21:58:26;-3.60;6.80
4054;DHT22;2042;47.956;9.222;2023-02-15T22:00:53;-3.60;6.50
4054;DHT22;2042;47.956;9.222;2023-02-15T22:03:21;-3.60;6.90
4054;DHT22;2042;47.956;9.222;2023-02-15T22:05:47;-3.60;7.60
4054;DHT22;2042;47.956;9.222;2023-02-15T22:08:13;-3.50;7.90
4054;DHT22;2042;47.956;9.222;2023-02-15T22:10:39;-3.40;8.90
4054;DHT22;2042;47.956;9.222;2023-02-15T22:13:11;-3.40;8.90
4054;DHT22;2042;47.956;9.222;2023-02-15T22:15:38;-3.40;8.90
4054;DHT22;2042;47.956;9.222;2023-02-15T22:18:04;-3.40;8.90
4054;DHT22;2042;47.956;9.222;2023-02-15T22:20:30;-3.30;9.20
4054;DHT22;2042;47.956;9.222;2023-02-15T22:22:56;-3.20;10.00
4054;DHT22;2042;47.956;9.222;2023-02-15T22:25:23;-3.10;10.10
4054;DHT22;2042;47.956;9.222;2023-02-15T22:27:50;-3.20;9.20
4054;DHT22;2042;47.956;9.222;2023-02-15T22:30:34;-3.20;9.00
4054;DHT22;2042;47.956;9.222;2023-02-15T22:33:01;-3.20;9.10
4054;DHT22;2042;47.956;9.222;2023-02-15T22:35:30;-3.20;9.50
4054;DHT22;2042;47.956;9.222;2023-02-15T22:37:56;-3.20;9.10
4054;DHT22;2042;47.956;9.222;2023-02-15T22:40:29;-3.20;9.20
4054;DHT22;2042;47.956;9.222;2023-02-15T22:42:56;-3.30;7.40
4054;DHT22;2042;47.956;9.222;2023-02-15T22:45:24;-3.40;7.00
4054;DHT22;2042;47.956;9.222;2023-02-15T22:47:55;-3.40;7.50
4054;DHT22;2042;47.956;9.222;2023-02-15T22:50:30;-3.40;7.90
4054;DHT22;2042;47.956;9.222;2023-02-15T22:52:59;-3.40;7.90
4054;DHT22;2042;47.956;9.222;2023-02-15T22:55:28;-3.40;6.90
4054;DHT22;2042;47.956;9.222;2023-02-15T22:57:56;-3.50;5.50
4054;DHT22;2042;47.956;9.222;2023-02-15T23:00:25;-3.60;4.90
4054;DHT22;2042;47.956;9.222;2023-02-15T23:02:52;-3.60;5.10
4054;DHT22;2042;47.956;9.222;2023-02-15T23:05:23;-3.60;5.20
4054;DHT22;2042;47.956;9.222;2023-02-15T23:07:49;-3.60;5.90
4054;DHT22;2042;47.956;9.222;2023-02-15T23:10:16;-3.50;6.50
4054;DHT22;2042;47.956;9.222;2023-02-15T23:12:53;-3.50;6.20
4054;DHT22;2042;47.956;9.222;2023-02-15T23:15:39;-3.40;6.70
4054;DHT22;2042;47.956;9.222;2023-02-15T23:21:09;-3.50;5.10
4054;DHT22;2042;47.956;9.222;2023-02-15T23:25:55;-3.60;4.80
4054;DHT22;2042;47.956;9.222;2023-02-15T23:28:31;-3.70;3.60
4054;DHT22;2042;47.956;9.222;2023-02-15T23:30:58;-3.70;3.00
4054;DHT22;2042;47.956;9.222;2023-02-15T23:33:27;-3.70;3.00
4054;DHT22;2042;47.956;9.222;2023-02-15T23:35:54;-3.70;3.20
4054;DHT22;2042;47.956;9.222;2023-02-15T23:38:26;-3.70;3.30
4054;DHT22;2042;47.956;9.222;2023-02-15T23:40:56;-3.70;4.00
4054;DHT22;2042;47.956;9.222;2023-02-15T23:43:42;-3.60;4.60
4054;DHT22;2042;47.956;9.222;2023-02-15T23:46:23;-3.50;4.30
4054;DHT22;2042;47.956;9.222;2023-02-15T23:48:49;-3.60;2.40
4054;DHT22;2042;47.956;9.222;2023-02-15T23:51:15;-3.70;1.70
4054;DHT22;2042;47.956;9.222;2023-02-15T23:53:41;-3.80;1.60
4054;DHT22;2042;47.956;9.222;2023-02-15T23:56:11;-3.80;1.30
4054;DHT22;2042;47.956;9.222;2023-02-15T23:58:39;-3.80;1.10
